Troy, TX

5:46 AM CDT on October 21, 2014 (GMT -0500)
Pandemonium Farms | Change Station
CLOSE
Current Station
Personal Weather Station
Location: Moody, TX
Elevation: 837 ft
Nearby Weather Stations

Elev 837 ft 31.29 °N, 97.31 °W | Updated 2 minutes ago

Clear
Clear
61.0 °F
Feels Like 61.0 °F
N
0.0
Wind Variable Wind from East

Today
High -- | Low -- °F
--% Chance of Precip.
Yesterday
High -- | Low -- °F
Precip. -- in
7:36 AM 6:50 PM
Waning Crescent, 6% visible
Pressure 30.05 in
Visibility 3.0 miles
Clouds Clear
Dew Point 58 °F
Humidity 90%
Rainfall 0.00 in
Snow Depth Not available.
UV 0 out of 12
Pollen 6.40 out of 12
Ozone Good
PM2.5 Good
Flu Activity Sporadic
METAR KTPL 211035Z AUTO 36003KT 3SM CLR 14/11 A3005 RMK AO1

More Conditions Fewer Conditions

Pressure 30.05 in
Visibility 3.0 miles
Clouds Clear
Dew Point 58 °F
Humidity 90%
Rainfall 0.00 in
Snow Depth Not available.
UV 0 out of 12
Pollen 6.40 out of 12
Ozone Good
PM2.5 Good
Flu Activity Sporadic
METAR KTPL 211035Z AUTO 36003KT 3SM CLR 14/11 A3005 RMK AO1

More Conditions Fewer Conditions

Nowcast | as of 4:37 am CDT on October 21, 2014

Patchy fog will occasionally reduce visibilities to around one mile across North Texas this morning. Conditions will improve after 9 am.

×

10-Day Weather Forecast

Almanac

Astronomy

Oct. 21, 2014 Rise Set
Actual Time 7:36 AM CDT 6:50 PM CDT
Civil Twilight 7:11 AM CDT 7:15 PM CDT
Nautical Twilight 6:43 AM CDT 7:43 PM CDT
Astronomical Twilight 6:15 AM CDT 8:11 PM CDT
Moon 5:30 AM CDT 5:38 PM CDT
Length of Visible Light 12h 03m
Length of Day
11h 14m
Tomorrow will be 1m 46s shorter.
Waning Crescent, 6% of the Moon is Illuminated
Today
Waning Crescent
Oct 23
New
Oct 30
First Quarter
Nov 6
Full
Nov 14
Last Quarter

Today's Extremes

State Highs State Lows

Community

WunderPhotos

Upload Photos

1,763,625 photos uploaded!

Nearby

Air Quality

  Air Quality AQ Index Pollutant
Yesterday Moderate
OZONE
Yesterday Good
PM2.5
Current Good
PM2.5
Current Good
OZONE
Tuesday Good
PM10
Tuesday Good
OZONE
Wednesday Good
PM10
Wednesday Good
OZONE
Thursday Moderate
OZONE
Thursday Good
PM10

Snow Depth

Station Depth Elevation
No new snow has been reported.

Earthquake Activity

City Distance Mag. Time & Date
No recent earthquake activity has been reported nearby.
Minimum magnitude displayed is 2.5.

Coastal Water Temperatures

Place Temperature
No Stations Reporting

Nearby Weather Stations